Time;durP1;ratioP1;P1;durP2;ratioP2;P2;SDS_P1;SDS_P2;PMS_P1;PMS_P2;Temp;Humidity;BMP_temperature;BMP_pressure;BME280_temperature;BME280_humidity;BME280_pressure;Samples;Min_cycle;Max_cycle;Signal;HPM_P1;HPM_P2
2022/12/15 00:38:41;;;;;;;38.53;15.50;;;;;;;;;;5052214;28;20049;-73
2022/12/15 00:41:07;;;;;;;38.13;15.35;;;;;;;;;;5052450;28;20075;-73
2022/12/15 00:43:33;;;;;;;36.60;15.82;;;;;;;;;;5051553;28;20060;-73
2022/12/15 00:48:45;;;;;;;30.52;14.27;;;;;;;;;;5051977;28;20504;-73
2022/12/15 00:51:11;;;;;;;31.20;14.77;;;;;;;;;;5052342;28;20043;-72
2022/12/15 01:21:07;;;;;;;39.42;15.65;;;;;;;;;;5071451;28;20834;-73
2022/12/15 01:23:34;;;;;;;39.80;15.05;;;;;;;;;;5072746;28;20036;-73
2022/12/15 01:26:00;;;;;;;31.90;14.50;;;;;;;;;;5056941;28;20032;-73
2022/12/15 01:28:26;;;;;;;32.80;14.88;;;;;;;;;;5071642;28;20504;-73
2022/12/15 01:30:52;;;;;;;35.53;14.95;;;;;;;;;;5070819;28;20044;-73
2022/12/15 01:33:19;;;;;;;32.75;14.15;;;;;;;;;;5068984;28;20049;-73
2022/12/15 01:35:45;;;;;;;34.85;13.88;;;;;;;;;;5064773;28;20055;-73
2022/12/15 01:38:11;;;;;;;31.45;13.95;;;;;;;;;;5054866;28;20056;-73
2022/12/15 01:40:43;;;;;;;32.92;13.98;;;;;;;;;;5072179;28;20051;-73
2022/12/15 01:43:21;;;;;;;37.58;13.88;;;;;;;;;;5056967;28;20037;-73
2022/12/15 01:45:50;;;;;;;34.75;13.55;;;;;;;;;;5071055;28;20489;-73
2022/12/15 01:48:28;;;;;;;33.70;14.45;;;;;;;;;;5071010;28;20041;-73
2022/12/15 01:51:06;;;;;;;33.47;14.00;;;;;;;;;;5070853;28;20126;-74
2022/12/15 01:53:34;;;;;;;31.98;13.73;;;;;;;;;;5043096;28;20062;-73
2022/12/15 01:56:02;;;;;;;31.45;13.32;;;;;;;;;;5069802;28;20048;-73
2022/12/15 01:58:28;;;;;;;32.50;14.40;;;;;;;;;;5054150;28;20044;-73
2022/12/15 02:00:54;;;;;;;29.98;13.43;;;;;;;;;;5070479;28;20128;-73
2022/12/15 02:03:20;;;;;;;35.05;15.43;;;;;;;;;;5070737;28;20043;-73
2022/12/15 02:05:47;;;;;;;36.45;14.23;;;;;;;;;;5071069;28;20040;-73
2022/12/15 02:08:13;;;;;;;37.08;13.85;;;;;;;;;;5070820;28;20040;-73
2022/12/15 02:10:42;;;;;;;38.13;16.15;;;;;;;;;;5071034;28;20068;-73
2022/12/15 02:13:15;;;;;;;34.90;15.00;;;;;;;;;;5071126;28;20044;-73
2022/12/15 02:15:47;;;;;;;36.10;15.43;;;;;;;;;;5048775;28;20041;-73
2022/12/15 02:18:22;;;;;;;36.10;14.68;;;;;;;;;;5062811;28;20049;-74
2022/12/15 02:21:01;;;;;;;37.85;15.82;;;;;;;;;;5070281;28;20036;-73
2022/12/15 02:23:27;;;;;;;34.67;15.10;;;;;;;;;;5071312;28;20538;-73
2022/12/15 02:26:11;;;;;;;37.53;14.98;;;;;;;;;;5070529;28;20049;-74
2022/12/15 02:28:56;;;;;;;37.60;14.23;;;;;;;;;;5070688;28;20043;-74
2022/12/15 02:34:31;;;;;;;34.20;14.85;;;;;;;;;;5064269;28;20080;-74
2022/12/15 02:37:00;;;;;;;35.88;14.70;;;;;;;;;;5070579;28;20045;-74
2022/12/15 02:39:26;;;;;;;33.95;14.50;;;;;;;;;;5070570;28;20115;-74
2022/12/15 02:41:53;;;;;;;36.05;15.18;;;;;;;;;;5053124;28;20044;-73
2022/12/15 02:44:24;;;;;;;37.72;14.77;;;;;;;;;;5053795;28;20036;-73
2022/12/15 02:46:56;;;;;;;33.83;13.82;;;;;;;;;;5053503;28;20090;-73
2022/12/15 02:49:22;;;;;;;34.28;14.50;;;;;;;;;;5070491;28;20043;-73
2022/12/15 02:52:07;;;;;;;33.35;14.57;;;;;;;;;;5070080;28;20052;-73
2022/12/15 02:54:49;;;;;;;34.92;14.27;;;;;;;;;;5070501;28;20041;-73
2022/12/15 02:57:15;;;;;;;33.72;15.32;;;;;;;;;;5070165;28;20072;-73
2022/12/15 02:59:54;;;;;;;36.70;15.18;;;;;;;;;;5070808;28;20067;-73
2022/12/15 03:02:21;;;;;;;41.42;15.10;;;;;;;;;;5050607;28;20103;-73
2022/12/15 03:04:47;;;;;;;36.13;14.68;;;;;;;;;;5051498;28;20033;-72
2022/12/15 03:07:13;;;;;;;35.15;15.57;;;;;;;;;;5051130;28;20052;-73
2022/12/15 03:09:39;;;;;;;35.13;15.10;;;;;;;;;;5055271;28;20041;-73
2022/12/15 03:12:05;;;;;;;38.72;14.68;;;;;;;;;;5053438;28;20049;-73
2022/12/15 03:14:31;;;;;;;36.10;14.73;;;;;;;;;;5053761;28;20053;-73
2022/12/15 03:16:57;;;;;;;36.42;14.68;;;;;;;;;;5036778;28;20199;-73
2022/12/15 03:19:24;;;;;;;32.92;13.82;;;;;;;;;;5062293;28;20056;-73
2022/12/15 03:21:51;;;;;;;38.47;14.70;;;;;;;;;;5053468;28;20124;-73
2022/12/15 03:24:17;;;;;;;37.80;14.32;;;;;;;;;;5053812;28;20041;-73
2022/12/15 03:26:43;;;;;;;36.70;13.80;;;;;;;;;;5053584;28;20039;-74
2022/12/15 03:29:09;;;;;;;36.33;14.63;;;;;;;;;;5037052;28;20044;-73
2022/12/15 03:31:35;;;;;;;36.97;14.55;;;;;;;;;;5053757;28;20049;-74
2022/12/15 03:34:01;;;;;;;34.70;15.00;;;;;;;;;;5050605;28;20052;-74
2022/12/15 03:36:27;;;;;;;33.33;14.20;;;;;;;;;;5053778;28;20036;-74
2022/12/15 03:38:53;;;;;;;36.33;14.50;;;;;;;;;;5052972;28;20037;-74
2022/12/15 03:41:19;;;;;;;33.13;14.90;;;;;;;;;;5053451;28;20049;-74
2022/12/15 03:43:45;;;;;;;34.45;14.25;;;;;;;;;;5053104;28;20047;-74
2022/12/15 03:46:12;;;;;;;39.05;15.75;;;;;;;;;;5036566;28;20040;-74
2022/12/15 03:48:38;;;;;;;41.72;15.20;;;;;;;;;;5053012;28;20041;-73
2022/12/15 03:51:04;;;;;;;34.22;14.70;;;;;;;;;;5086471;28;20045;-74
2022/12/15 03:53:30;;;;;;;34.75;14.82;;;;;;;;;;5053037;28;20041;-74
2022/12/15 03:55:56;;;;;;;34.17;15.20;;;;;;;;;;5052764;28;20044;-74
2022/12/15 03:58:22;;;;;;;34.70;15.38;;;;;;;;;;5036369;28;20170;-74
2022/12/15 04:00:48;;;;;;;36.72;16.13;;;;;;;;;;5036466;28;20065;-73
2022/12/15 04:03:14;;;;;;;40.92;17.80;;;;;;;;;;5052844;28;20473;-73
2022/12/15 04:05:40;;;;;;;44.75;18.00;;;;;;;;;;5052997;28;20037;-74
2022/12/15 04:08:07;;;;;;;38.88;17.58;;;;;;;;;;5052672;28;20041;-74
2022/12/15 04:10:34;;;;;;;40.50;17.17;;;;;;;;;;5053092;28;20124;-74
2022/12/15 04:13:00;;;;;;;40.35;17.33;;;;;;;;;;5052758;28;20132;-73
2022/12/15 04:15:27;;;;;;;42.95;17.95;;;;;;;;;;5052805;28;20041;-74
2022/12/15 04:17:53;;;;;;;36.88;16.58;;;;;;;;;;5045471;28;20068;-74
2022/12/15 04:20:19;;;;;;;43.13;17.30;;;;;;;;;;5071803;28;20086;-74
2022/12/15 04:22:47;;;;;;;44.13;17.90;;;;;;;;;;5056161;28;20094;-74
2022/12/15 05:34:02;;;;;;;36.97;17.25;;;;;;;;;;5066292;28;20049;-74
2022/12/15 05:36:28;;;;;;;40.10;17.60;;;;;;;;;;5071194;28;20079;-74
2022/12/15 05:38:54;;;;;;;35.45;16.30;;;;;;;;;;5071588;28;20044;-74
2022/12/15 05:41:20;;;;;;;33.25;16.05;;;;;;;;;;5070732;28;20041;-74
2022/12/15 05:43:47;;;;;;;36.25;16.30;;;;;;;;;;5054680;28;20036;-74
2022/12/15 05:46:13;;;;;;;40.05;16.83;;;;;;;;;;5070575;28;20039;-74
2022/12/15 05:48:39;;;;;;;35.85;15.75;;;;;;;;;;5071181;28;20091;-74
2022/12/15 05:51:09;;;;;;;34.63;15.48;;;;;;;;;;5070998;28;20057;-74
2022/12/15 05:53:36;;;;;;;33.42;15.27;;;;;;;;;;5071149;28;20067;-74
2022/12/15 05:56:03;;;;;;;37.67;16.73;;;;;;;;;;5070950;28;20036;-74
2022/12/15 05:58:30;;;;;;;35.08;15.73;;;;;;;;;;5070706;28;20174;-74
2022/12/15 06:01:02;;;;;;;38.88;16.85;;;;;;;;;;5071037;28;20504;-73
2022/12/15 06:03:28;;;;;;;38.50;17.02;;;;;;;;;;5070609;28;20040;-74
2022/12/15 06:05:54;;;;;;;37.03;16.00;;;;;;;;;;5071194;28;20397;-74
2022/12/15 06:08:20;;;;;;;33.00;15.43;;;;;;;;;;5070824;28;20396;-74
2022/12/15 06:10:51;;;;;;;33.58;15.48;;;;;;;;;;5054510;28;20496;-73
2022/12/15 06:13:17;;;;;;;31.52;15.15;;;;;;;;;;5070468;28;20112;-74
2022/12/15 06:15:43;;;;;;;32.53;14.38;;;;;;;;;;5065207;28;20541;-74
2022/12/15 06:18:10;;;;;;;29.17;14.60;;;;;;;;;;5078909;28;20060;-74
2022/12/15 06:20:36;;;;;;;30.67;14.75;;;;;;;;;;5054125;28;20493;-74
2022/12/15 06:23:02;;;;;;;33.83;15.00;;;;;;;;;;5071094;28;20563;-74
2022/12/15 06:25:28;;;;;;;33.22;15.35;;;;;;;;;;5070472;28;20040;-74
2022/12/15 06:27:54;;;;;;;35.10;15.43;;;;;;;;;;5071076;28;20070;-74
2022/12/15 06:30:20;;;;;;;31.90;15.32;;;;;;;;;;5070232;28;20036;-74
2022/12/15 06:32:46;;;;;;;36.65;16.23;;;;;;;;;;5070780;28;20390;-73
2022/12/15 06:35:12;;;;;;;38.85;16.27;;;;;;;;;;5064323;28;20044;-74
2022/12/15 06:37:38;;;;;;;31.70;15.88;;;;;;;;;;5070625;28;20090;-74
2022/12/15 06:40:04;;;;;;;36.55;16.35;;;;;;;;;;5054080;28;20119;-74
2022/12/15 06:42:30;;;;;;;39.22;15.77;;;;;;;;;;5072185;28;20405;-73
2022/12/15 06:44:56;;;;;;;35.45;15.80;;;;;;;;;;5074791;28;20358;-74
2022/12/15 06:47:22;;;;;;;33.00;15.77;;;;;;;;;;5074086;28;20468;-74
2022/12/15 06:49:48;;;;;;;32.38;15.05;;;;;;;;;;5108570;28;20459;-74
2022/12/15 06:52:14;;;;;;;33.13;14.63;;;;;;;;;;5074380;28;20378;-74
2022/12/15 06:54:41;;;;;;;38.85;16.20;;;;;;;;;;5074375;28;20040;-74
2022/12/15 06:57:07;;;;;;;34.95;16.05;;;;;;;;;;5074322;28;20040;-74
2022/12/15 06:59:33;;;;;;;37.75;17.35;;;;;;;;;;5074099;28;20493;-73
2022/12/15 07:01:59;;;;;;;32.20;15.15;;;;;;;;;;5057327;28;20118;-74
2022/12/15 07:04:25;;;;;;;34.35;15.57;;;;;;;;;;5073723;28;20080;-74
2022/12/15 07:06:51;;;;;;;34.65;15.57;;;;;;;;;;5057873;28;20041;-74
2022/12/15 07:09:17;;;;;;;32.47;13.30;;;;;;;;;;5073799;28;20124;-74
2022/12/15 07:11:45;;;;;;;29.50;15.18;;;;;;;;;;5073845;28;20052;-74
2022/12/15 07:14:11;;;;;;;34.80;14.95;;;;;;;;;;5057290;28;20098;-74
2022/12/15 07:16:37;;;;;;;31.33;14.68;;;;;;;;;;5060211;28;20068;-75
2022/12/15 07:19:03;;;;;;;29.73;13.98;;;;;;;;;;5056460;28;20044;-74
2022/12/15 07:21:30;;;;;;;33.88;13.68;;;;;;;;;;5073488;28;20555;-74
2022/12/15 07:23:56;;;;;;;32.88;14.10;;;;;;;;;;5073852;28;20036;-74
2022/12/15 07:26:22;;;;;;;30.38;14.02;;;;;;;;;;5074538;28;20461;-74
2022/12/15 07:28:48;;;;;;;32.38;14.80;;;;;;;;;;5073957;28;20501;-75
2022/12/15 07:31:14;;;;;;;29.42;14.00;;;;;;;;;;5074916;28;20044;-74
2022/12/15 07:33:40;;;;;;;31.25;14.88;;;;;;;;;;5051579;28;20394;-74
2022/12/15 07:36:07;;;;;;;33.10;14.60;;;;;;;;;;5074303;28;20128;-74
2022/12/15 07:38:33;;;;;;;28.60;14.35;;;;;;;;;;5073394;28;20405;-74
2022/12/15 07:41:01;;;;;;;28.83;13.90;;;;;;;;;;5073256;28;20075;-74
2022/12/15 07:43:28;;;;;;;24.67;13.25;;;;;;;;;;5056921;28;20044;-74
2022/12/15 07:45:54;;;;;;;28.80;13.48;;;;;;;;;;5073560;28;20540;-74
2022/12/15 07:48:21;;;;;;;30.25;13.55;;;;;;;;;;5072899;28;20104;-74
2022/12/15 07:50:47;;;;;;;26.45;13.43;;;;;;;;;;5073591;28;20464;-75
2022/12/15 07:53:13;;;;;;;30.27;13.50;;;;;;;;;;5072650;28;20047;-75
2022/12/15 07:55:39;;;;;;;30.75;13.85;;;;;;;;;;5072551;28;20102;-75
2022/12/15 07:58:05;;;;;;;30.20;13.50;;;;;;;;;;5074585;28;20036;-74
2022/12/15 08:00:31;;;;;;;29.20;13.85;;;;;;;;;;5072735;28;20052;-75
2022/12/15 08:02:57;;;;;;;29.30;14.95;;;;;;;;;;5039929;28;20063;-74
2022/12/15 08:05:23;;;;;;;27.20;12.93;;;;;;;;;;5072777;28;20072;-75
2022/12/15 08:07:50;;;;;;;33.55;13.35;;;;;;;;;;5072998;28;20066;-74
2022/12/15 08:10:16;;;;;;;30.00;14.65;;;;;;;;;;5073081;28;20086;-76
2022/12/15 08:12:42;;;;;;;33.78;13.93;;;;;;;;;;5072525;28;20052;-75
2022/12/15 08:15:10;;;;;;;26.75;14.18;;;;;;;;;;5071930;28;20094;-75
2022/12/15 08:17:36;;;;;;;30.38;13.95;;;;;;;;;;5060771;28;20517;-74
2022/12/15 08:20:03;;;;;;;32.17;15.00;;;;;;;;;;5072674;28;20051;-74
2022/12/15 08:22:29;;;;;;;30.05;13.90;;;;;;;;;;5072004;28;20040;-74
2022/12/15 08:24:55;;;;;;;28.75;13.57;;;;;;;;;;5072656;28;20044;-74
2022/12/15 08:27:22;;;;;;;24.63;13.18;;;;;;;;;;5055893;28;20036;-74
2022/12/15 08:29:49;;;;;;;27.35;14.27;;;;;;;;;;5072472;28;20075;-74
2022/12/15 08:32:15;;;;;;;30.67;15.98;;;;;;;;;;5055918;28;20040;-74
2022/12/15 08:34:41;;;;;;;31.58;15.70;;;;;;;;;;5065740;28;20044;-74
2022/12/15 08:37:07;;;;;;;39.50;16.48;;;;;;;;;;5072802;28;20072;-75
2022/12/15 08:39:34;;;;;;;28.33;14.13;;;;;;;;;;5073396;28;20040;-74
2022/12/15 08:42:00;;;;;;;24.67;14.20;;;;;;;;;;5072271;28;20067;-74
2022/12/15 08:44:26;;;;;;;22.08;12.40;;;;;;;;;;5072031;28;20040;-74
2022/12/15 08:46:52;;;;;;;22.10;12.38;;;;;;;;;;5072522;28;20048;-74
2022/12/15 08:49:18;;;;;;;19.55;11.45;;;;;;;;;;5055691;28;20087;-75
2022/12/15 08:51:44;;;;;;;16.33;10.10;;;;;;;;;;5088865;28;20036;-75
2022/12/15 08:54:10;;;;;;;18.05;10.23;;;;;;;;;;5071852;28;20048;-75
2022/12/15 08:56:36;;;;;;;16.42;9.82;;;;;;;;;;5055286;28;20041;-75
2022/12/15 08:59:02;;;;;;;16.60;9.43;;;;;;;;;;5072014;28;20052;-75
2022/12/15 09:01:30;;;;;;;15.95;8.25;;;;;;;;;;5071462;28;20041;-75
2022/12/15 09:03:57;;;;;;;13.40;8.20;;;;;;;;;;5071732;28;20044;-75
2022/12/15 09:06:24;;;;;;;18.63;9.65;;;;;;;;;;5055303;28;20141;-75
2022/12/15 09:08:53;;;;;;;18.55;8.70;;;;;;;;;;5071357;28;20036;-75
2022/12/15 09:11:19;;;;;;;16.40;8.68;;;;;;;;;;5071914;28;20489;-75
2022/12/15 09:13:45;;;;;;;15.02;7.70;;;;;;;;;;5071436;28;20040;-75
2022/12/15 09:16:12;;;;;;;15.02;8.68;;;;;;;;;;5062434;28;20123;-75
2022/12/15 09:18:41;;;;;;;14.82;8.48;;;;;;;;;;5100790;28;20463;-75
2022/12/15 09:21:07;;;;;;;18.20;8.35;;;;;;;;;;5054784;28;20179;-75
2022/12/15 09:23:34;;;;;;;15.65;8.15;;;;;;;;;;5070977;28;20032;-75
2022/12/15 09:26:05;;;;;;;15.43;7.90;;;;;;;;;;5071504;28;20089;-75
2022/12/15 09:28:31;;;;;;;18.65;9.30;;;;;;;;;;5072674;28;20044;-74
2022/12/15 09:31:03;;;;;;;17.45;9.07;;;;;;;;;;5054623;28;20040;-74
2022/12/15 09:33:29;;;;;;;18.17;9.65;;;;;;;;;;5067342;28;20115;-74
2022/12/15 09:35:55;;;;;;;14.85;9.13;;;;;;;;;;5068717;28;20098;-74
2022/12/15 09:38:21;;;;;;;20.33;10.20;;;;;;;;;;5071618;28;20076;-74
2022/12/15 09:40:47;;;;;;;19.02;10.23;;;;;;;;;;5070685;28;20048;-75
2022/12/15 09:43:16;;;;;;;18.58;9.93;;;;;;;;;;5071202;28;20076;-75
2022/12/15 09:45:44;;;;;;;18.42;8.75;;;;;;;;;;5070648;28;20048;-75
2022/12/15 09:48:15;;;;;;;15.88;9.10;;;;;;;;;;5071189;28;20037;-75
2022/12/15 09:50:44;;;;;;;15.68;8.23;;;;;;;;;;5070601;28;20120;-75
2022/12/15 09:53:12;;;;;;;17.23;7.82;;;;;;;;;;5071239;28;20420;-75
2022/12/15 09:55:38;;;;;;;17.17;8.45;;;;;;;;;;5070797;28;20488;-75
2022/12/15 09:58:18;;;;;;;14.95;8.07;;;;;;;;;;5054400;28;20064;-75
2022/12/15 10:00:54;;;;;;;14.43;8.10;;;;;;;;;;5070528;28;20044;-75
2022/12/15 10:03:35;;;;;;;12.52;7.93;;;;;;;;;;5071308;28;20040;-75
2022/12/15 10:06:09;;;;;;;14.63;7.82;;;;;;;;;;5070922;28;20044;-75
2022/12/15 10:08:50;;;;;;;14.15;8.05;;;;;;;;;;5044189;28;20036;-75
2022/12/15 10:11:19;;;;;;;11.63;6.80;;;;;;;;;;5071096;28;20044;-75
2022/12/15 10:13:58;;;;;;;14.95;7.18;;;;;;;;;;5070505;28;20047;-75
2022/12/15 10:16:33;;;;;;;13.23;7.22;;;;;;;;;;5058785;28;20110;-74
2022/12/15 10:19:13;;;;;;;15.00;6.80;;;;;;;;;;5069490;28;20109;-75
2022/12/15 10:21:42;;;;;;;11.02;6.07;;;;;;;;;;5070388;28;20041;-75
2022/12/15 10:24:19;;;;;;;9.43;5.53;;;;;;;;;;5028446;28;20094;-75
2022/12/15 10:27:16;;;;;;;13.90;6.10;;;;;;;;;;5070365;28;20032;-74
2022/12/15 10:29:46;;;;;;;13.48;6.40;;;;;;;;;;5061899;28;20098;-74
2022/12/15 10:32:19;;;;;;;9.35;6.03;;;;;;;;;;5070600;28;20056;-74
2022/12/15 10:34:45;;;;;;;10.43;5.90;;;;;;;;;;5064359;28;20047;-74
2022/12/15 10:37:14;;;;;;;11.50;6.18;;;;;;;;;;5070425;28;20044;-74
2022/12/15 10:39:41;;;;;;;13.75;6.63;;;;;;;;;;5070689;28;20106;-74
2022/12/15 10:42:13;;;;;;;12.48;6.35;;;;;;;;;;5070598;28;20045;-74
2022/12/15 10:44:41;;;;;;;9.52;5.90;;;;;;;;;;5070566;28;20032;-74
2022/12/15 10:47:26;;;;;;;11.48;5.95;;;;;;;;;;5070623;28;20051;-74
2022/12/15 10:49:53;;;;;;;11.20;6.18;;;;;;;;;;5070488;28;20554;-74
2022/12/15 10:52:26;;;;;;;9.73;6.20;;;;;;;;;;5070702;28;20409;-74
2022/12/15 10:54:53;;;;;;;9.93;6.35;;;;;;;;;;5070320;28;20382;-74
2022/12/15 10:57:21;;;;;;;11.60;7.13;;;;;;;;;;5053875;28;20041;-74
2022/12/15 10:59:48;;;;;;;11.25;7.22;;;;;;;;;;5069962;28;20064;-74
2022/12/15 11:02:20;;;;;;;13.88;6.90;;;;;;;;;;5070520;28;20041;-74
2022/12/15 11:05:04;;;;;;;13.00;7.47;;;;;;;;;;5071115;28;20448;-74
2022/12/15 11:07:33;;;;;;;15.30;7.40;;;;;;;;;;5070485;28;20489;-74
2022/12/15 11:10:00;;;;;;;12.32;7.45;;;;;;;;;;5070288;28;20405;-73
2022/12/15 11:15:20;;;;;;;13.93;7.93;;;;;;;;;;5068810;28;20504;-74
2022/12/15 11:17:58;;;;;;;12.82;8.00;;;;;;;;;;5059482;28;20052;-74
2022/12/15 11:20:28;;;;;;;13.20;7.70;;;;;;;;;;5053562;28;20119;-74
2022/12/15 11:22:58;;;;;;;12.63;8.13;;;;;;;;;;5069704;28;20044;-74
2022/12/15 11:25:24;;;;;;;15.35;8.00;;;;;;;;;;5053288;28;20040;-74
2022/12/15 11:27:51;;;;;;;13.38;7.53;;;;;;;;;;5053267;28;20041;-74
2022/12/15 11:30:19;;;;;;;12.30;7.68;;;;;;;;;;5072792;28;20040;-74
2022/12/15 11:32:52;;;;;;;13.77;8.05;;;;;;;;;;5073511;28;20068;-75
2022/12/15 11:35:20;;;;;;;14.10;8.20;;;;;;;;;;5068728;28;20114;-75
2022/12/15 11:37:55;;;;;;;15.52;8.00;;;;;;;;;;5073007;28;20055;-75
2022/12/15 11:40:37;;;;;;;15.70;8.10;;;;;;;;;;5073731;28;20072;-74
2022/12/15 11:43:06;;;;;;;15.00;8.27;;;;;;;;;;5073430;28;20036;-74
2022/12/15 11:45:39;;;;;;;18.80;9.02;;;;;;;;;;5056929;28;20125;-74
2022/12/15 11:48:10;;;;;;;15.35;7.82;;;;;;;;;;5045263;28;20435;-74
2022/12/15 11:50:51;;;;;;;15.38;8.07;;;;;;;;;;5056967;28;20048;-74
2022/12/15 11:53:36;;;;;;;18.00;8.65;;;;;;;;;;5073485;28;20477;-74
2022/12/15 11:56:22;;;;;;;13.70;8.27;;;;;;;;;;5074171;28;20051;-74
2022/12/15 11:58:48;;;;;;;20.80;7.90;;;;;;;;;;5072870;28;20047;-74
2022/12/15 12:01:33;;;;;;;14.57;7.57;;;;;;;;;;5073031;28;20045;-74
2022/12/15 12:04:02;;;;;;;17.02;8.23;;;;;;;;;;5072967;28;20051;-74
2022/12/15 12:06:28;;;;;;;13.45;7.70;;;;;;;;;;5073233;28;20068;-74
2022/12/15 12:08:57;;;;;;;16.98;7.82;;;;;;;;;;5072765;28;20427;-74
2022/12/15 12:11:23;;;;;;;16.08;7.97;;;;;;;;;;5073026;28;20052;-74
2022/12/15 12:14:01;;;;;;;16.27;8.38;;;;;;;;;;5073054;28;20041;-74
2022/12/15 12:16:37;;;;;;;18.05;9.05;;;;;;;;;;5061111;28;20076;-74
2022/12/15 12:19:10;;;;;;;17.83;8.10;;;;;;;;;;5071338;28;20489;-74
2022/12/15 12:21:39;;;;;;;18.73;9.00;;;;;;;;;;5073063;28;20044;-74
2022/12/15 12:24:13;;;;;;;16.88;9.07;;;;;;;;;;5073407;28;20033;-74
2022/12/15 12:26:46;;;;;;;17.58;9.00;;;;;;;;;;5072831;28;20042;-74
2022/12/15 12:29:15;;;;;;;17.80;9.63;;;;;;;;;;5073508;28;20048;-74
2022/12/15 12:31:47;;;;;;;19.77;9.90;;;;;;;;;;5072604;28;20118;-74
2022/12/15 12:34:26;;;;;;;18.52;9.43;;;;;;;;;;5066260;28;20040;-75
2022/12/15 12:36:53;;;;;;;20.55;9.63;;;;;;;;;;5072478;28;20036;-74
2022/12/15 12:39:20;;;;;;;20.50;9.98;;;;;;;;;;5071807;28;20045;-74
2022/12/15 12:42:03;;;;;;;19.38;10.27;;;;;;;;;;5055464;28;20041;-74
2022/12/15 12:44:32;;;;;;;20.58;10.15;;;;;;;;;;5072259;28;20041;-74
2022/12/15 12:46:59;;;;;;;22.85;11.15;;;;;;;;;;5071801;28;20082;-74
2022/12/15 12:49:31;;;;;;;25.98;11.63;;;;;;;;;;5072151;28;20094;-74
2022/12/15 12:51:58;;;;;;;24.92;11.23;;;;;;;;;;5071932;28;20493;-74
2022/12/15 12:54:33;;;;;;;25.77;12.50;;;;;;;;;;5071878;28;20109;-75
2022/12/15 12:57:00;;;;;;;19.37;9.27;;;;;;;;;;5071592;28;20442;-74
2022/12/15 12:59:29;;;;;;;22.98;12.70;;;;;;;;;;5071834;28;20045;-74
2022/12/15 13:02:33;;;;;;;31.63;12.32;;;;;;;;;;5071397;28;20119;-74
2022/12/15 13:05:03;;;;;;;28.75;12.18;;;;;;;;;;5071673;28;20114;-74
2022/12/15 13:07:39;;;;;;;22.42;10.93;;;;;;;;;;5071719;28;20044;-74
2022/12/15 13:10:08;;;;;;;19.75;10.30;;;;;;;;;;5054966;28;20072;-74
2022/12/15 13:12:47;;;;;;;22.20;11.18;;;;;;;;;;5055326;28;20509;-74
2022/12/15 13:15:32;;;;;;;21.42;11.52;;;;;;;;;;5072241;28;20084;-73
2022/12/15 13:18:00;;;;;;;22.20;10.40;;;;;;;;;;5061033;28;20056;-74
2022/12/15 13:20:26;;;;;;;22.30;10.95;;;;;;;;;;5071740;28;20040;-74
2022/12/15 13:22:53;;;;;;;26.33;11.07;;;;;;;;;;5071466;28;20044;-74
2022/12/15 13:25:25;;;;;;;20.02;11.20;;;;;;;;;;5072176;28;20036;-73
2022/12/15 13:27:52;;;;;;;22.90;11.05;;;;;;;;;;5071206;28;20029;-74
2022/12/15 13:30:18;;;;;;;25.23;10.88;;;;;;;;;;5071352;28;20470;-74
2022/12/15 13:32:45;;;;;;;19.70;10.70;;;;;;;;;;5037998;28;20075;-74
2022/12/15 13:35:11;;;;;;;21.50;10.90;;;;;;;;;;5064727;28;20099;-74
2022/12/15 13:37:57;;;;;;;20.92;10.10;;;;;;;;;;5071415;28;20040;-74
2022/12/15 13:40:32;;;;;;;46.95;18.45;;;;;;;;;;5054198;28;20051;-74
2022/12/15 13:43:04;;;;;;;26.15;10.80;;;;;;;;;;5071363;28;20397;-74
2022/12/15 13:45:33;;;;;;;21.20;10.40;;;;;;;;;;5054787;28;20492;-74
2022/12/15 13:48:00;;;;;;;20.60;9.73;;;;;;;;;;5070894;28;20036;-74
2022/12/15 13:50:31;;;;;;;23.20;9.02;;;;;;;;;;5071410;28;20051;-74
2022/12/15 13:53:00;;;;;;;17.95;9.55;;;;;;;;;;5053482;28;20094;-74
2022/12/15 13:55:28;;;;;;;17.73;8.68;;;;;;;;;;5070946;28;20037;-74
2022/12/15 13:58:07;;;;;;;19.95;8.77;;;;;;;;;;5054053;28;20048;-74
2022/12/15 14:00:33;;;;;;;19.27;11.25;;;;;;;;;;5071010;28;20120;-74
2022/12/15 14:03:06;;;;;;;19.58;10.23;;;;;;;;;;5054110;28;20072;-74
2022/12/15 14:05:32;;;;;;;19.50;11.13;;;;;;;;;;5070949;28;20037;-74
2022/12/15 14:08:00;;;;;;;22.95;11.88;;;;;;;;;;5070846;28;20044;-74
2022/12/15 14:10:33;;;;;;;23.65;12.90;;;;;;;;;;5070817;28;20028;-74
2022/12/15 14:13:01;;;;;;;23.55;12.45;;;;;;;;;;5071030;28;20493;-74
2022/12/15 14:15:29;;;;;;;25.67;13.88;;;;;;;;;;5050384;28;20052;-75
2022/12/15 14:17:55;;;;;;;28.90;14.07;;;;;;;;;;5060165;28;20071;-74
2022/12/15 14:20:24;;;;;;;27.85;13.98;;;;;;;;;;5070375;28;20118;-74
2022/12/15 14:22:51;;;;;;;25.73;13.45;;;;;;;;;;5070734;28;20121;-74
2022/12/15 14:25:17;;;;;;;30.23;15.20;;;;;;;;;;5070521;28;20072;-74
2022/12/15 14:27:43;;;;;;;28.17;13.18;;;;;;;;;;5070844;28;20039;-75
2022/12/15 14:30:18;;;;;;;25.63;13.25;;;;;;;;;;5070558;28;20551;-74
2022/12/15 14:32:46;;;;;;;27.20;13.50;;;;;;;;;;5054190;28;20036;-74
2022/12/15 14:35:14;;;;;;;26.95;13.18;;;;;;;;;;5064238;28;20036;-74
2022/12/15 14:37:41;;;;;;;25.13;13.98;;;;;;;;;;5070843;28;20056;-74
2022/12/15 14:40:12;;;;;;;25.95;13.70;;;;;;;;;;5070191;28;20045;-74
2022/12/15 14:42:38;;;;;;;26.40;13.65;;;;;;;;;;5070468;28;20071;-74
2022/12/15 14:45:04;;;;;;;26.00;14.25;;;;;;;;;;5070712;28;20497;-74
2022/12/15 14:47:33;;;;;;;30.70;15.18;;;;;;;;;;5053391;28;20055;-74
2022/12/15 14:50:01;;;;;;;29.50;14.65;;;;;;;;;;5070478;28;20037;-74
2022/12/15 14:52:32;;;;;;;28.60;15.48;;;;;;;;;;5070397;28;20482;-74
2022/12/15 14:54:59;;;;;;;28.77;15.30;;;;;;;;;;5043836;28;20072;-74
2022/12/15 14:57:27;;;;;;;28.95;15.40;;;;;;;;;;5070223;28;20042;-74
2022/12/15 14:59:53;;;;;;;30.27;14.30;;;;;;;;;;5070160;28;20043;-74
2022/12/15 15:02:29;;;;;;;29.15;14.52;;;;;;;;;;5070214;28;20603;-74
2022/12/15 15:05:02;;;;;;;31.52;15.82;;;;;;;;;;5074026;28;20040;-74
2022/12/15 15:07:30;;;;;;;28.92;14.73;;;;;;;;;;5073905;28;20036;-73
2022/12/15 15:09:56;;;;;;;28.80;14.68;;;;;;;;;;5075075;28;20028;-73
2022/12/15 15:12:49;;;;;;;31.90;15.48;;;;;;;;;;5073662;28;20045;-73
2022/12/15 15:15:16;;;;;;;29.23;15.70;;;;;;;;;;5069138;28;20489;-74
2022/12/15 15:17:44;;;;;;;31.17;16.10;;;;;;;;;;5078649;28;20580;-73
2022/12/15 15:20:16;;;;;;;27.55;16.55;;;;;;;;;;5056911;28;20127;-74
2022/12/15 15:22:44;;;;;;;29.98;15.45;;;;;;;;;;5073995;28;20047;-73
2022/12/15 15:25:19;;;;;;;33.13;16.90;;;;;;;;;;5057405;28;20493;-74
2022/12/15 15:27:45;;;;;;;29.85;16.27;;;;;;;;;;5047147;28;20029;-74
2022/12/15 15:30:21;;;;;;;28.33;15.75;;;;;;;;;;5073751;28;20037;-73
2022/12/15 15:32:51;;;;;;;32.15;15.93;;;;;;;;;;5074053;28;20405;-73
2022/12/15 15:35:18;;;;;;;27.40;14.98;;;;;;;;;;5050377;28;20052;-74
2022/12/15 15:37:45;;;;;;;29.80;16.85;;;;;;;;;;5057000;28;20122;-74
2022/12/15 15:40:14;;;;;;;33.13;16.38;;;;;;;;;;5073664;28;20044;-74
2022/12/15 15:42:41;;;;;;;32.38;16.13;;;;;;;;;;5056631;28;20044;-74
2022/12/15 15:45:12;;;;;;;29.90;15.95;;;;;;;;;;5073750;28;20106;-74
2022/12/15 15:47:39;;;;;;;25.75;15.77;;;;;;;;;;5073427;28;20497;-73
2022/12/15 15:50:05;;;;;;;29.98;15.20;;;;;;;;;;5073611;28;20392;-73
2022/12/15 15:52:32;;;;;;;28.65;15.57;;;;;;;;;;5072862;28;20048;-74
2022/12/15 15:54:59;;;;;;;28.88;14.80;;;;;;;;;;5073535;28;20090;-74
2022/12/15 15:57:25;;;;;;;27.98;14.75;;;;;;;;;;5072988;28;20103;-74
2022/12/15 15:59:51;;;;;;;30.05;15.43;;;;;;;;;;5073506;28;20379;-74
2022/12/15 16:02:17;;;;;;;26.42;15.02;;;;;;;;;;5072755;28;20044;-74
2022/12/15 16:04:44;;;;;;;30.95;14.55;;;;;;;;;;5073387;28;20351;-74
2022/12/15 16:07:19;;;;;;;30.10;15.88;;;;;;;;;;5056519;28;20047;-74
2022/12/15 16:09:45;;;;;;;31.92;16.75;;;;;;;;;;5073361;28;20516;-74
2022/12/15 16:12:26;;;;;;;28.15;15.48;;;;;;;;;;5056500;28;20055;-74
2022/12/15 16:14:52;;;;;;;26.58;14.85;;;;;;;;;;5072123;28;20523;-74
2022/12/15 16:17:18;;;;;;;28.42;14.93;;;;;;;;;;5041638;28;20048;-74
2022/12/15 16:19:45;;;;;;;30.35;15.88;;;;;;;;;;5072950;28;20052;-74
2022/12/15 16:22:21;;;;;;;27.02;15.60;;;;;;;;;;5053475;28;21532;-74
2022/12/15 16:24:47;;;;;;;34.17;17.10;;;;;;;;;;5062981;28;20033;-74
2022/12/15 16:27:14;;;;;;;32.35;17.05;;;;;;;;;;5072693;28;20047;-74
2022/12/15 16:29:42;;;;;;;34.97;17.33;;;;;;;;;;5063626;28;20119;-74
2022/12/15 16:32:10;;;;;;;32.33;17.63;;;;;;;;;;5067392;28;20124;-74
2022/12/15 16:34:36;;;;;;;33.65;17.75;;;;;;;;;;5065840;28;20044;-74
2022/12/15 16:37:02;;;;;;;52.72;20.25;;;;;;;;;;5072466;28;20052;-74
2022/12/15 16:39:32;;;;;;;35.85;19.10;;;;;;;;;;5072257;28;20405;-74
2022/12/15 16:41:59;;;;;;;36.70;20.08;;;;;;;;;;5072405;28;20045;-74
2022/12/15 16:44:26;;;;;;;36.53;19.40;;;;;;;;;;5055257;28;20040;-74
2022/12/15 16:46:52;;;;;;;36.90;19.10;;;;;;;;;;5072516;28;20370;-74
2022/12/15 16:49:18;;;;;;;39.25;21.40;;;;;;;;;;5072258;28;20139;-74
2022/12/15 16:51:48;;;;;;;41.80;20.52;;;;;;;;;;5071759;28;20045;-74
2022/12/15 16:54:16;;;;;;;36.53;18.50;;;;;;;;;;5072174;28;20040;-74